Time;durP1;ratioP1;P1;durP2;ratioP2;P2;SDS_P1;SDS_P2;PMS_P1;PMS_P2;Temp;Humidity;BMP_temperature;BMP_pressure;BME280_temperature;BME280_humidity;BME280_pressure;Samples;Min_cycle;Max_cycle;Signal;HPM_P1;HPM_P2
2022/07/30 00:00:47;;;;;;;;;;;16.50;99.90;;;;;;5073336;28;19916;-67
2022/07/30 00:03:12;;;;;;;;;;;16.50;99.90;;;;;;5073535;28;20008;-67
2022/07/30 00:05:38;;;;;;;;;;;16.50;99.90;;;;;;5073288;28;19909;-67
2022/07/30 00:08:03;;;;;;;;;;;16.50;99.90;;;;;;5073618;28;19916;-67
2022/07/30 00:10:29;;;;;;;;;;;16.40;99.90;;;;;;5073486;28;19932;-67
2022/07/30 00:12:56;;;;;;;;;;;16.40;99.90;;;;;;5073496;28;20017;-67
2022/07/30 00:15:21;;;;;;;;;;;16.30;99.90;;;;;;5073494;28;19908;-67
2022/07/30 00:17:47;;;;;;;;;;;16.30;99.90;;;;;;5073170;28;20287;-67
2022/07/30 00:20:12;;;;;;;;;;;16.30;99.90;;;;;;5073462;28;20061;-67
2022/07/30 00:22:38;;;;;;;;;;;16.30;99.90;;;;;;5073317;28;19912;-68
2022/07/30 00:25:04;;;;;;;;;;;16.30;99.90;;;;;;5073190;28;19915;-67
2022/07/30 00:27:33;;;;;;;;;;;16.30;99.90;;;;;;5073091;28;20333;-67
2022/07/30 00:29:59;;;;;;;;;;;16.30;99.90;;;;;;5073359;28;19909;-67
2022/07/30 00:32:24;;;;;;;;;;;16.30;99.90;;;;;;5073055;28;19955;-67
2022/07/30 00:34:50;;;;;;;;;;;16.30;99.90;;;;;;5073295;28;19909;-67
2022/07/30 00:37:15;;;;;;;;;;;16.30;99.90;;;;;;5073041;28;19991;-67
2022/07/30 00:39:40;;;;;;;;;;;16.30;99.90;;;;;;5072994;28;19909;-67
2022/07/30 00:42:06;;;;;;;;;;;16.40;99.90;;;;;;5072928;28;19931;-67
2022/07/30 00:44:32;;;;;;;;;;;16.40;99.90;;;;;;5072945;28;19908;-67
2022/07/30 00:46:57;;;;;;;;;;;16.40;99.90;;;;;;5073222;28;19912;-67
2022/07/30 00:49:23;;;;;;;;;;;16.30;99.90;;;;;;5073272;28;19909;-67
2022/07/30 00:51:49;;;;;;;;;;;16.30;99.90;;;;;;5076785;28;19915;-67
2022/07/30 00:54:14;;;;;;;;;;;16.20;99.90;;;;;;5076480;28;19909;-67
2022/07/30 00:56:40;;;;;;;;;;;16.20;99.90;;;;;;5076718;28;20321;-67
2022/07/30 00:59:06;;;;;;;;;;;16.20;99.90;;;;;;5076647;28;20359;-68
2022/07/30 01:01:32;;;;;;;;;;;16.20;99.90;;;;;;5076338;28;19909;-67
2022/07/30 01:03:57;;;;;;;;;;;16.10;99.90;;;;;;5076500;28;19923;-67
2022/07/30 01:06:23;;;;;;;;;;;16.10;99.90;;;;;;5076257;28;19909;-67
2022/07/30 01:08:49;;;;;;;;;;;16.00;99.90;;;;;;5076441;28;19908;-67
2022/07/30 01:11:15;;;;;;;;;;;15.90;99.90;;;;;;5076454;28;20343;-67
2022/07/30 01:13:40;;;;;;;;;;;15.90;99.90;;;;;;5076543;28;19908;-67
2022/07/30 01:16:06;;;;;;;;;;;15.90;99.90;;;;;;5076101;28;20278;-67
2022/07/30 01:21:20;;;;;;;;;;;15.80;99.90;;;;;;5075804;28;20007;-68
2022/07/30 01:23:45;;;;;;;;;;;15.70;99.90;;;;;;5075816;28;19947;-67
2022/07/30 01:26:13;;;;;;;;;;;15.70;99.90;;;;;;5076196;28;19909;-67
2022/07/30 01:28:41;;;;;;;;;;;15.70;99.90;;;;;;5075876;28;19909;-67
2022/07/30 01:31:07;;;;;;;;;;;15.70;99.90;;;;;;5076062;28;19958;-67
2022/07/30 01:33:34;;;;;;;;;;;15.70;99.90;;;;;;5076034;28;19912;-67
2022/07/30 01:36:00;;;;;;;;;;;15.60;99.90;;;;;;5075743;28;19908;-67
2022/07/30 01:38:26;;;;;;;;;;;15.50;99.90;;;;;;5075676;28;19908;-67
2022/07/30 01:40:52;;;;;;;;;;;15.50;99.90;;;;;;5075612;28;20389;-67
2022/07/30 01:43:19;;;;;;;;;;;15.40;99.90;;;;;;5075256;28;19930;-67
2022/07/30 01:45:46;;;;;;;;;;;15.40;99.90;;;;;;5075817;28;20321;-67
2022/07/30 01:48:12;;;;;;;;;;;15.30;99.90;;;;;;5075761;28;19909;-67
2022/07/30 01:50:41;;;;;;;;;;;15.20;99.90;;;;;;5075668;28;19962;-67
2022/07/30 01:53:07;;;;;;;;;;;15.10;99.90;;;;;;5075678;28;19908;-67
2022/07/30 01:55:34;;;;;;;;;;;15.10;99.90;;;;;;5075588;28;19915;-68
2022/07/30 01:58:00;;;;;;;;;;;15.10;99.90;;;;;;5075548;28;20011;-67
2022/07/30 02:00:29;;;;;;;;;;;15.00;99.90;;;;;;5075480;28;19948;-67
2022/07/30 02:03:07;;;;;;;;;;;15.00;99.90;;;;;;5075394;28;20331;-67
2022/07/30 02:05:34;;;;;;;;;;;15.00;99.90;;;;;;5075378;28;19959;-68
2022/07/30 02:08:06;;;;;;;;;;;14.90;99.90;;;;;;5057275;28;19909;-67
2022/07/30 02:10:35;;;;;;;;;;;14.90;99.90;;;;;;5074990;28;19909;-67
2022/07/30 02:13:03;;;;;;;;;;;14.90;99.90;;;;;;5057443;28;19916;-67
2022/07/30 02:15:33;;;;;;;;;;;14.90;99.90;;;;;;5074916;28;20041;-68
2022/07/30 02:18:01;;;;;;;;;;;14.80;99.90;;;;;;5075115;28;19908;-67
2022/07/30 02:20:28;;;;;;;;;;;14.70;99.90;;;;;;5074845;28;19927;-67
2022/07/30 02:22:55;;;;;;;;;;;14.70;99.90;;;;;;5074701;28;19982;-67
2022/07/30 02:25:21;;;;;;;;;;;14.60;99.90;;;;;;5074716;28;19962;-68
2022/07/30 02:27:49;;;;;;;;;;;14.60;99.90;;;;;;5074967;28;19977;-67
2022/07/30 02:30:14;;;;;;;;;;;14.50;99.90;;;;;;5074896;28;19940;-68
2022/07/30 02:32:42;;;;;;;;;;;14.50;99.90;;;;;;5074837;28;20370;-67
2022/07/30 02:35:14;;;;;;;;;;;14.50;99.90;;;;;;5074552;28;19913;-67
2022/07/30 02:37:41;;;;;;;;;;;14.50;99.90;;;;;;5074709;28;19958;-67
2022/07/30 02:40:07;;;;;;;;;;;14.50;99.90;;;;;;5074712;28;20467;-67
2022/07/30 02:42:33;;;;;;;;;;;14.50;99.90;;;;;;5074014;28;19921;-67
2022/07/30 02:44:59;;;;;;;;;;;14.40;99.90;;;;;;5074593;28;20003;-67
2022/07/30 02:47:25;;;;;;;;;;;14.40;99.90;;;;;;5074310;28;19909;-67
2022/07/30 02:49:52;;;;;;;;;;;14.40;99.90;;;;;;5074277;28;20283;-67
2022/07/30 02:52:18;;;;;;;;;;;14.30;99.90;;;;;;5074455;28;19916;-67
2022/07/30 02:54:45;;;;;;;;;;;14.40;99.90;;;;;;5074442;28;19913;-67
2022/07/30 02:57:11;;;;;;;;;;;14.30;99.90;;;;;;5074051;28;19908;-67
2022/07/30 02:59:38;;;;;;;;;;;14.20;99.90;;;;;;5074065;28;20007;-67
2022/07/30 03:02:05;;;;;;;;;;;14.20;99.90;;;;;;5074244;28;20367;-67
2022/07/30 03:04:31;;;;;;;;;;;14.20;99.90;;;;;;5074277;28;19909;-67
2022/07/30 03:06:58;;;;;;;;;;;14.20;99.90;;;;;;5074254;28;20397;-67
2022/07/30 03:09:25;;;;;;;;;;;14.10;99.90;;;;;;5074221;28;19973;-67
2022/07/30 03:11:51;;;;;;;;;;;14.00;99.90;;;;;;5073938;28;19908;-68
2022/07/30 03:14:16;;;;;;;;;;;14.00;99.90;;;;;;5073716;28;19909;-67
2022/07/30 03:16:45;;;;;;;;;;;14.00;99.90;;;;;;5073852;28;19915;-67
2022/07/30 03:19:13;;;;;;;;;;;14.00;99.90;;;;;;5074098;28;20382;-67
2022/07/30 03:21:40;;;;;;;;;;;14.00;99.90;;;;;;5073815;28;19909;-67
2022/07/30 03:24:06;;;;;;;;;;;14.10;99.90;;;;;;5073684;28;19987;-67
2022/07/30 03:26:32;;;;;;;;;;;14.10;99.90;;;;;;5073999;28;19908;-67
2022/07/30 03:28:58;;;;;;;;;;;14.00;99.90;;;;;;5073705;28;20042;-67
2022/07/30 03:31:24;;;;;;;;;;;14.00;99.90;;;;;;5073729;28;19954;-67
2022/07/30 03:33:49;;;;;;;;;;;13.90;99.90;;;;;;5073647;28;20016;-67
2022/07/30 03:36:16;;;;;;;;;;;13.90;99.90;;;;;;5055660;28;19909;-67
2022/07/30 03:38:42;;;;;;;;;;;13.90;99.90;;;;;;5073516;28;19908;-67
2022/07/30 03:41:09;;;;;;;;;;;13.80;99.90;;;;;;5073853;28;19952;-67
2022/07/30 03:43:34;;;;;;;;;;;13.80;99.90;;;;;;5073382;28;20382;-67
2022/07/30 03:46:02;;;;;;;;;;;13.80;99.90;;;;;;5073538;28;19958;-67
2022/07/30 03:48:28;;;;;;;;;;;13.70;99.90;;;;;;5073791;28;20401;-67
2022/07/30 03:50:54;;;;;;;;;;;13.80;99.90;;;;;;5073749;28;19909;-67
2022/07/30 03:53:23;;;;;;;;;;;13.80;99.90;;;;;;5073685;28;19932;-67
2022/07/30 03:55:50;;;;;;;;;;;13.80;99.90;;;;;;5073430;28;19909;-67
2022/07/30 03:58:15;;;;;;;;;;;13.90;99.90;;;;;;5073393;28;20379;-67
2022/07/30 04:00:41;;;;;;;;;;;14.00;99.90;;;;;;5073352;28;19916;-67
2022/07/30 04:03:07;;;;;;;;;;;14.10;99.90;;;;;;5055395;28;19919;-67
2022/07/30 04:05:32;;;;;;;;;;;14.20;99.90;;;;;;5073384;28;19959;-68
2022/07/30 04:07:58;;;;;;;;;;;14.30;99.90;;;;;;5073333;28;19909;-67
2022/07/30 04:10:23;;;;;;;;;;;14.30;99.90;;;;;;5073591;28;19952;-68
2022/07/30 04:12:49;;;;;;;;;;;14.30;99.90;;;;;;5073554;28;19908;-68
2022/07/30 04:15:14;;;;;;;;;;;14.40;99.90;;;;;;5073521;28;19915;-67
2022/07/30 04:17:43;;;;;;;;;;;14.40;99.90;;;;;;5073217;28;19943;-67
2022/07/30 04:20:11;;;;;;;;;;;14.40;99.90;;;;;;5073463;28;20278;-67
2022/07/30 04:22:37;;;;;;;;;;;14.40;99.90;;;;;;5073360;28;19920;-67
2022/07/30 04:25:05;;;;;;;;;;;14.40;99.90;;;;;;5074195;28;19909;-67
2022/07/30 04:27:30;;;;;;;;;;;14.40;99.90;;;;;;5077220;28;19908;-67
2022/07/30 04:29:56;;;;;;;;;;;14.40;99.90;;;;;;5077244;28;19908;-68
2022/07/30 04:32:21;;;;;;;;;;;14.40;99.90;;;;;;5077142;28;19908;-67
2022/07/30 04:34:48;;;;;;;;;;;14.30;99.90;;;;;;5077126;28;19913;-67
2022/07/30 04:37:14;;;;;;;;;;;14.30;99.90;;;;;;5076826;28;19913;-67
2022/07/30 04:39:40;;;;;;;;;;;14.30;99.90;;;;;;5077012;28;19908;-67
2022/07/30 04:42:05;;;;;;;;;;;14.30;99.90;;;;;;5076727;28;19970;-67
2022/07/30 04:44:31;;;;;;;;;;;14.30;99.90;;;;;;5076952;28;20279;-68
2022/07/30 04:46:56;;;;;;;;;;;14.40;99.90;;;;;;5076618;28;20359;-67
2022/07/30 04:49:22;;;;;;;;;;;14.60;99.90;;;;;;5076588;28;19999;-67
2022/07/30 04:51:48;;;;;;;;;;;14.90;99.90;;;;;;5076564;28;19912;-67
2022/07/30 04:54:14;;;;;;;;;;;15.10;99.90;;;;;;5076764;28;19917;-67
2022/07/30 04:56:40;;;;;;;;;;;15.50;99.90;;;;;;5076708;28;19909;-67
2022/07/30 04:59:06;;;;;;;;;;;16.10;99.90;;;;;;5076440;28;20451;-67
2022/07/30 05:01:34;;;;;;;;;;;16.50;99.90;;;;;;5076611;28;19908;-68
2022/07/30 05:04:00;;;;;;;;;;;16.70;99.90;;;;;;5076337;28;19912;-68
2022/07/30 05:06:26;;;;;;;;;;;16.50;99.90;;;;;;5076583;28;20363;-67
2022/07/30 05:08:52;;;;;;;;;;;16.40;99.90;;;;;;5076486;28;20259;-67
2022/07/30 05:11:17;;;;;;;;;;;16.20;99.90;;;;;;5076219;28;19919;-67
2022/07/30 05:13:43;;;;;;;;;;;16.20;99.90;;;;;;5076458;28;19942;-67
2022/07/30 05:16:10;;;;;;;;;;;16.20;99.90;;;;;;5076353;28;20362;-67
2022/07/30 05:18:36;;;;;;;;;;;16.20;99.90;;;;;;5076324;28;19916;-67
2022/07/30 05:21:01;;;;;;;;;;;16.30;99.90;;;;;;5076023;28;19908;-67
2022/07/30 05:23:27;;;;;;;;;;;16.30;99.90;;;;;;5075927;28;20026;-67
2022/07/30 05:25:52;;;;;;;;;;;16.30;99.90;;;;;;5075987;28;19966;-67
2022/07/30 05:28:18;;;;;;;;;;;16.20;99.90;;;;;;5057940;28;19908;-67
2022/07/30 05:30:43;;;;;;;;;;;16.20;99.90;;;;;;5075997;28;19965;-67
2022/07/30 05:33:09;;;;;;;;;;;16.20;99.90;;;;;;5057903;28;19915;-67
2022/07/30 05:35:34;;;;;;;;;;;16.20;99.90;;;;;;5075710;28;19909;-67
2022/07/30 05:38:00;;;;;;;;;;;16.30;99.90;;;;;;5075710;28;20454;-67
2022/07/30 05:40:25;;;;;;;;;;;16.40;99.90;;;;;;5075589;28;19923;-67
2022/07/30 05:42:51;;;;;;;;;;;16.70;99.90;;;;;;5075371;28;19927;-67
2022/07/30 05:45:16;;;;;;;;;;;17.20;99.90;;;;;;5075667;28;19913;-67
2022/07/30 05:47:42;;;;;;;;;;;18.00;99.90;;;;;;5075778;28;20078;-67
2022/07/30 05:50:07;;;;;;;;;;;18.40;99.90;;;;;;5075510;28;19999;-67
2022/07/30 05:52:33;;;;;;;;;;;19.30;99.90;;;;;;5075695;28;19912;-68
2022/07/30 05:54:58;;;;;;;;;;;19.50;99.90;;;;;;5075386;28;19909;-68
2022/07/30 05:57:24;;;;;;;;;;;19.80;99.90;;;;;;5075394;28;19908;-68
2022/07/30 05:59:49;;;;;;;;;;;20.20;99.90;;;;;;5075551;28;19909;-68
2022/07/30 06:02:15;;;;;;;;;;;20.30;99.90;;;;;;5075269;28;19953;-68
2022/07/30 06:04:41;;;;;;;;;;;20.60;99.90;;;;;;5075131;28;19916;-68
2022/07/30 06:07:06;;;;;;;;;;;20.60;99.90;;;;;;5075382;28;19908;-68
2022/07/30 06:09:32;;;;;;;;;;;21.50;99.90;;;;;;5057481;28;20330;-68
2022/07/30 06:11:57;;;;;;;;;;;22.50;99.90;;;;;;5075014;28;19958;-68
2022/07/30 06:14:23;;;;;;;;;;;22.20;99.90;;;;;;5057169;28;19908;-68
2022/07/30 06:16:48;;;;;;;;;;;22.20;99.90;;;;;;5075217;28;19908;-68
2022/07/30 06:19:14;;;;;;;;;;;22.40;99.90;;;;;;5075168;28;19954;-68
2022/07/30 06:21:39;;;;;;;;;;;22.80;99.90;;;;;;5075101;28;19912;-68
2022/07/30 06:24:05;;;;;;;;;;;22.50;99.90;;;;;;5074733;28;19913;-68
2022/07/30 06:26:31;;;;;;;;;;;23.20;99.90;;;;;;5074689;28;19908;-68
2022/07/30 06:28:56;;;;;;;;;;;24.50;99.90;;;;;;5074921;28;19961;-68
2022/07/30 06:31:22;;;;;;;;;;;24.80;99.90;;;;;;5074593;28;19908;-68
2022/07/30 06:33:47;;;;;;;;;;;25.50;99.90;;;;;;5074868;28;20008;-69
2022/07/30 06:36:13;;;;;;;;;;;25.60;99.90;;;;;;5074828;28;19916;-68
2022/07/30 06:38:38;;;;;;;;;;;25.20;99.90;;;;;;5074469;28;19909;-68
2022/07/30 06:41:04;;;;;;;;;;;25.10;99.90;;;;;;5074720;28;19991;-68
2022/07/30 06:43:29;;;;;;;;;;;25.20;99.90;;;;;;5074164;28;20272;-68
2022/07/30 06:45:55;;;;;;;;;;;25.60;99.90;;;;;;5074622;28;19957;-69
2022/07/30 06:48:20;;;;;;;;;;;24.90;99.90;;;;;;5073731;28;20278;-69
2022/07/30 06:50:46;;;;;;;;;;;25.10;99.90;;;;;;5056420;28;19913;-68
2022/07/30 06:53:11;;;;;;;;;;;25.20;99.90;;;;;;5074521;28;19915;-68
2022/07/30 06:55:37;;;;;;;;;;;25.20;99.90;;;;;;5074495;28;19912;-68
2022/07/30 06:58:02;;;;;;;;;;;25.20;99.90;;;;;;5074182;28;19909;-69
2022/07/30 07:00:28;;;;;;;;;;;25.90;99.90;;;;;;5074395;28;19908;-69
2022/07/30 07:02:54;;;;;;;;;;;26.60;99.70;;;;;;5074255;28;19991;-69
2022/07/30 07:05:21;;;;;;;;;;;27.10;99.40;;;;;;5074293;28;20294;-69
2022/07/30 07:07:46;;;;;;;;;;;27.40;97.40;;;;;;5074283;28;19908;-69
2022/07/30 07:10:12;;;;;;;;;;;27.40;96.70;;;;;;5056051;28;19909;-69
2022/07/30 07:12:37;;;;;;;;;;;27.60;96.60;;;;;;5073862;28;19919;-69
2022/07/30 07:15:03;;;;;;;;;;;27.30;96.00;;;;;;5074137;28;19912;-69
2022/07/30 07:17:29;;;;;;;;;;;27.50;95.40;;;;;;5073841;28;19909;-68
2022/07/30 07:19:54;;;;;;;;;;;27.80;95.20;;;;;;5073859;28;20003;-69
2022/07/30 07:22:20;;;;;;;;;;;27.50;95.70;;;;;;5055883;28;20428;-69
2022/07/30 07:24:45;;;;;;;;;;;27.60;95.50;;;;;;5073721;28;20278;-69
2022/07/30 07:27:11;;;;;;;;;;;27.60;95.20;;;;;;5073947;28;19909;-69
2022/07/30 07:29:36;;;;;;;;;;;26.90;96.10;;;;;;5073725;28;20001;-68
2022/07/30 07:32:02;;;;;;;;;;;27.40;95.40;;;;;;5073902;28;20429;-68
2022/07/30 07:34:27;;;;;;;;;;;27.30;95.50;;;;;;5073884;28;19912;-69
2022/07/30 07:36:53;;;;;;;;;;;27.50;95.00;;;;;;5055789;28;19909;-68
2022/07/30 07:39:18;;;;;;;;;;;27.00;95.90;;;;;;5055689;28;19908;-68
2022/07/30 07:41:44;;;;;;;;;;;26.20;97.50;;;;;;5073545;28;19908;-68
2022/07/30 07:44:09;;;;;;;;;;;26.50;97.40;;;;;;5073671;28;19920;-68
2022/07/30 07:46:35;;;;;;;;;;;26.10;98.40;;;;;;5073541;28;19908;-68
2022/07/30 07:49:00;;;;;;;;;;;26.00;99.00;;;;;;5073744;28;19915;-68
2022/07/30 07:51:26;;;;;;;;;;;26.70;97.10;;;;;;5073486;28;19909;-68
2022/07/30 07:53:51;;;;;;;;;;;25.40;98.80;;;;;;5073729;28;19916;-68
2022/07/30 07:56:17;;;;;;;;;;;25.80;99.90;;;;;;5073461;28;19913;-68
2022/07/30 07:58:43;;;;;;;;;;;27.00;98.00;;;;;;5074182;28;20024;-68
2022/07/30 08:01:08;;;;;;;;;;;27.70;95.80;;;;;;5077705;28;19996;-69
2022/07/30 08:03:34;;;;;;;;;;;27.20;95.70;;;;;;5077414;28;19959;-68
2022/07/30 08:06:00;;;;;;;;;;;26.70;96.50;;;;;;5077512;28;19912;-68
2022/07/30 08:08:26;;;;;;;;;;;26.50;97.40;;;;;;5077415;28;20319;-68
2022/07/30 08:10:51;;;;;;;;;;;27.30;96.20;;;;;;5077404;28;19915;-68
2022/07/30 08:13:17;;;;;;;;;;;27.80;95.30;;;;;;5059667;28;19927;-68
2022/07/30 08:15:42;;;;;;;;;;;28.20;95.00;;;;;;5077292;28;19909;-68
2022/07/30 08:18:09;;;;;;;;;;;27.30;95.30;;;;;;5077512;28;19916;-68
2022/07/30 08:20:36;;;;;;;;;;;27.10;96.10;;;;;;5077108;28;19915;-69
2022/07/30 08:23:02;;;;;;;;;;;27.10;96.50;;;;;;5077285;28;19913;-69
2022/07/30 08:25:28;;;;;;;;;;;27.40;96.20;;;;;;5077245;28;20367;-68
2022/07/30 08:27:54;;;;;;;;;;;27.40;96.70;;;;;;5076956;28;19908;-68
2022/07/30 08:30:20;;;;;;;;;;;27.30;96.10;;;;;;5076940;28;19908;-68
2022/07/30 08:32:45;;;;;;;;;;;26.30;97.10;;;;;;5077174;28;19909;-68
2022/07/30 08:35:11;;;;;;;;;;;25.80;99.10;;;;;;5077135;28;19912;-68
2022/07/30 08:37:36;;;;;;;;;;;26.60;98.20;;;;;;5077069;28;19908;-68
2022/07/30 08:40:03;;;;;;;;;;;27.00;97.30;;;;;;5077037;28;19909;-68
2022/07/30 08:42:29;;;;;;;;;;;27.80;96.00;;;;;;5076611;28;19927;-68
2022/07/30 08:44:55;;;;;;;;;;;27.70;96.40;;;;;;5076686;28;19931;-68
2022/07/30 08:47:24;;;;;;;;;;;28.30;96.30;;;;;;5076539;28;20367;-68
2022/07/30 08:49:50;;;;;;;;;;;27.00;97.40;;;;;;5076830;28;20277;-68
2022/07/30 08:52:16;;;;;;;;;;;26.40;99.10;;;;;;5076788;28;19908;-68
2022/07/30 08:54:42;;;;;;;;;;;26.50;99.70;;;;;;5076505;28;19908;-68
2022/07/30 08:57:08;;;;;;;;;;;26.70;99.30;;;;;;5076577;28;20058;-68
2022/07/30 08:59:33;;;;;;;;;;;27.70;97.80;;;;;;5076426;28;19991;-68
2022/07/30 09:01:59;;;;;;;;;;;27.40;98.10;;;;;;5076310;28;19916;-68
2022/07/30 09:04:25;;;;;;;;;;;27.10;97.60;;;;;;5058355;28;19981;-68
2022/07/30 09:06:50;;;;;;;;;;;27.30;98.10;;;;;;5076550;28;19943;-68
2022/07/30 09:09:16;;;;;;;;;;;27.20;98.00;;;;;;5076459;28;20382;-68
2022/07/30 09:11:41;;;;;;;;;;;27.10;97.70;;;;;;5075708;28;19908;-68
2022/07/30 09:14:09;;;;;;;;;;;27.20;97.40;;;;;;5076373;28;19944;-68
2022/07/30 09:16:35;;;;;;;;;;;26.70;99.10;;;;;;5076105;28;19912;-68
2022/07/30 09:19:10;;;;;;;;;;;26.20;99.90;;;;;;5076328;28;19957;-68
2022/07/30 09:21:36;;;;;;;;;;;26.60;99.20;;;;;;5076231;28;20320;-68
2022/07/30 09:24:04;;;;;;;;;;;27.20;98.50;;;;;;5076105;28;19913;-68
2022/07/30 09:26:31;;;;;;;;;;;26.30;99.90;;;;;;5076159;28;19908;-68
2022/07/30 09:29:17;;;;;;;;;;;25.60;99.90;;;;;;5076058;28;19957;-68
2022/07/30 09:31:58;;;;;;;;;;;25.60;99.90;;;;;;5075701;28;19908;-68
2022/07/30 09:34:29;;;;;;;;;;;26.00;99.90;;;;;;5075825;28;19908;-68
2022/07/30 09:36:56;;;;;;;;;;;26.20;99.90;;;;;;5075722;28;20024;-68
2022/07/30 09:39:29;;;;;;;;;;;25.40;99.90;;;;;;5075715;28;19908;-68
2022/07/30 09:41:55;;;;;;;;;;;24.90;99.90;;;;;;5075691;28;19916;-68
2022/07/30 09:44:23;;;;;;;;;;;26.10;99.90;;;;;;5057717;28;19913;-68
2022/07/30 09:46:50;;;;;;;;;;;27.00;99.40;;;;;;5075805;28;20248;-68
2022/07/30 09:49:17;;;;;;;;;;;25.50;99.90;;;;;;5075743;28;20401;-68
2022/07/30 09:51:42;;;;;;;;;;;25.90;99.90;;;;;;5075388;28;20370;-68
2022/07/30 09:54:08;;;;;;;;;;;26.80;99.90;;;;;;5075394;28;19918;-68
2022/07/30 09:56:33;;;;;;;;;;;27.10;98.60;;;;;;5075365;28;20260;-69
2022/07/30 09:58:59;;;;;;;;;;;27.70;97.30;;;;;;5075349;28;19908;-68
2022/07/30 10:01:24;;;;;;;;;;;27.10;95.90;;;;;;5057331;28;20285;-68
2022/07/30 10:03:50;;;;;;;;;;;26.90;98.40;;;;;;5075082;28;19912;-68
2022/07/30 10:06:15;;;;;;;;;;;26.90;98.40;;;;;;5075088;28;19909;-68
2022/07/30 10:08:42;;;;;;;;;;;27.50;97.60;;;;;;5075290;28;19944;-68
2022/07/30 10:11:09;;;;;;;;;;;27.90;97.20;;;;;;5074945;28;19912;-68
2022/07/30 10:13:35;;;;;;;;;;;27.90;95.50;;;;;;5074776;28;19908;-68
2022/07/30 10:16:00;;;;;;;;;;;27.40;95.50;;;;;;5074951;28;19909;-68
2022/07/30 10:18:26;;;;;;;;;;;28.20;95.50;;;;;;5075013;28;19991;-68
2022/07/30 10:20:52;;;;;;;;;;;27.90;93.70;;;;;;5074789;28;19915;-68
2022/07/30 10:23:18;;;;;;;;;;;27.90;93.90;;;;;;5073545;28;20093;-68
2022/07/30 10:25:44;;;;;;;;;;;27.80;94.00;;;;;;5074594;28;19912;-68
2022/07/30 10:28:09;;;;;;;;;;;28.20;93.20;;;;;;5074772;28;19913;-68
2022/07/30 10:30:35;;;;;;;;;;;27.50;93.40;;;;;;5074749;28;20275;-67
2022/07/30 10:33:01;;;;;;;;;;;26.80;94.90;;;;;;5074727;28;19908;-68
2022/07/30 10:35:27;;;;;;;;;;;27.00;94.30;;;;;;5056589;28;20290;-67
2022/07/30 10:37:54;;;;;;;;;;;27.30;93.80;;;;;;5074632;28;19909;-67
2022/07/30 10:40:25;;;;;;;;;;;27.60;92.90;;;;;;5074272;28;19908;-67
2022/07/30 10:43:11;;;;;;;;;;;27.80;93.90;;;;;;5073976;28;19928;-67
2022/07/30 10:45:48;;;;;;;;;;;28.20;90.60;;;;;;5074117;28;20011;-67
2022/07/30 10:48:14;;;;;;;;;;;28.20;91.70;;;;;;5074257;28;19909;-68
2022/07/30 10:50:54;;;;;;;;;;;28.50;91.30;;;;;;5074568;28;19908;-68
2022/07/30 10:53:39;;;;;;;;;;;28.10;91.70;;;;;;5056725;28;19908;-68
2022/07/30 10:56:13;;;;;;;;;;;27.50;91.90;;;;;;5074467;28;19969;-69
2022/07/30 10:58:58;;;;;;;;;;;27.30;91.60;;;;;;5074395;28;20343;-67
2022/07/30 11:01:24;;;;;;;;;;;26.60;92.70;;;;;;5073857;28;19909;-68
2022/07/30 11:04:09;;;;;;;;;;;26.60;93.00;;;;;;5073959;28;19966;-68
2022/07/30 11:06:35;;;;;;;;;;;26.30;93.30;;;;;;5073899;28;19952;-68
2022/07/30 11:09:00;;;;;;;;;;;26.80;93.80;;;;;;5056045;28;19955;-68
2022/07/30 11:14:04;;;;;;;;;;;27.40;92.20;;;;;;5091216;27;19912;-67
2022/07/30 11:16:33;;;;;;;;;;;27.70;91.40;;;;;;5124173;28;20002;-67
2022/07/30 11:19:16;;;;;;;;;;;28.00;91.20;;;;;;5091353;28;20362;-68
2022/07/30 11:21:42;;;;;;;;;;;27.60;91.70;;;;;;5091292;28;20294;-67
2022/07/30 11:24:28;;;;;;;;;;;27.70;90.90;;;;;;5091296;28;20282;-67
2022/07/30 11:26:53;;;;;;;;;;;26.70;90.50;;;;;;5090967;28;20322;-67
2022/07/30 11:29:35;;;;;;;;;;;26.50;91.50;;;;;;5090911;28;19959;-67
2022/07/30 11:32:20;;;;;;;;;;;26.90;92.40;;;;;;5091058;28;20353;-67
2022/07/30 11:34:46;;;;;;;;;;;27.00;91.40;;;;;;5090883;28;19924;-68
2022/07/30 11:37:15;;;;;;;;;;;27.00;92.70;;;;;;5090712;28;19915;-68
2022/07/30 11:42:35;;;;;;;;;;;27.20;90.90;;;;;;5091283;27;20294;-68
2022/07/30 11:47:54;;;;;;;;;;;28.00;90.30;;;;;;5071036;28;19919;-69
2022/07/30 11:50:25;;;;;;;;;;;27.80;89.70;;;;;;5071187;28;20003;-68
2022/07/30 11:52:51;;;;;;;;;;;27.30;90.00;;;;;;5070872;28;19915;-68
2022/07/30 11:55:25;;;;;;;;;;;27.00;90.60;;;;;;5070835;28;19909;-68
2022/07/30 11:57:52;;;;;;;;;;;27.10;91.10;;;;;;5071019;28;20425;-69
2022/07/30 12:00:17;;;;;;;;;;;27.30;90.00;;;;;;5070909;28;20375;-68
2022/07/30 12:02:44;;;;;;;;;;;27.00;90.70;;;;;;5070607;28;19909;-68
2022/07/30 12:05:10;;;;;;;;;;;27.10;91.60;;;;;;5070530;28;19915;-68
2022/07/30 12:07:35;;;;;;;;;;;27.40;90.90;;;;;;5086360;28;20423;-68
2022/07/30 12:10:17;;;;;;;;;;;27.50;90.30;;;;;;5070548;28;19951;-68
2022/07/30 12:12:43;;;;;;;;;;;27.40;89.30;;;;;;5070451;28;20418;-69
2022/07/30 12:15:09;;;;;;;;;;;27.30;90.60;;;;;;5070722;28;19916;-68
2022/07/30 12:17:42;;;;;;;;;;;27.00;91.00;;;;;;5070734;28;19908;-68
2022/07/30 12:20:16;;;;;;;;;;;26.20;91.10;;;;;;5070616;28;20291;-68
2022/07/30 12:22:42;;;;;;;;;;;25.90;92.30;;;;;;5070490;28;20387;-68
2022/07/30 12:25:08;;;;;;;;;;;25.90;92.10;;;;;;5070234;28;19915;-68
2022/07/30 12:27:33;;;;;;;;;;;26.20;91.60;;;;;;5086046;28;19919;-68
2022/07/30 12:29:59;;;;;;;;;;;26.70;91.50;;;;;;5070402;28;19909;-68
2022/07/30 12:32:25;;;;;;;;;;;27.40;90.50;;;;;;5068897;28;20011;-68
2022/07/30 12:34:53;;;;;;;;;;;28.10;89.70;;;;;;5086077;28;20003;-69
2022/07/30 12:37:18;;;;;;;;;;;28.20;87.50;;;;;;5070272;28;20019;-68
2022/07/30 12:39:44;;;;;;;;;;;27.60;86.20;;;;;;5068705;28;20382;-68
2022/07/30 12:42:16;;;;;;;;;;;27.50;88.60;;;;;;5069882;28;20334;-69
2022/07/30 12:44:43;;;;;;;;;;;27.70;84.40;;;;;;5070095;28;20419;-68
2022/07/30 12:47:25;;;;;;;;;;;27.50;85.70;;;;;;5084045;28;19921;-68
2022/07/30 12:49:51;;;;;;;;;;;27.80;85.60;;;;;;5089983;28;19908;-68
2022/07/30 12:52:19;;;;;;;;;;;27.00;86.50;;;;;;5090180;28;19908;-69
2022/07/30 12:54:54;;;;;;;;;;;26.80;87.70;;;;;;5090151;28;20394;-68
2022/07/30 12:57:20;;;;;;;;;;;27.20;88.90;;;;;;5087050;28;19958;-68
2022/07/30 12:59:45;;;;;;;;;;;27.70;89.10;;;;;;5076504;28;20354;-68
2022/07/30 13:02:11;;;;;;;;;;;27.80;88.10;;;;;;5076535;28;19909;-69
2022/07/30 13:04:48;;;;;;;;;;;27.70;84.50;;;;;;5076454;28;20382;-68
2022/07/30 13:07:15;;;;;;;;;;;28.10;84.00;;;;;;5076072;28;19918;-69
2022/07/30 13:09:41;;;;;;;;;;;27.50;82.80;;;;;;5076052;28;19998;-68
2022/07/30 13:12:10;;;;;;;;;;;27.40;85.80;;;;;;5076333;28;20305;-68
2022/07/30 13:14:36;;;;;;;;;;;26.60;86.30;;;;;;5076045;28;19954;-68
2022/07/30 13:17:02;;;;;;;;;;;26.80;86.70;;;;;;5076268;28;19912;-68
2022/07/30 13:19:27;;;;;;;;;;;26.90;87.50;;;;;;5075972;28;19996;-68
2022/07/30 13:21:53;;;;;;;;;;;27.10;87.80;;;;;;5076161;28;19909;-68
2022/07/30 13:24:19;;;;;;;;;;;26.30;86.80;;;;;;5076126;28;19995;-68
2022/07/30 13:26:45;;;;;;;;;;;26.50;89.50;;;;;;5075743;28;19966;-68
2022/07/30 13:29:12;;;;;;;;;;;27.10;89.30;;;;;;5075797;28;19912;-68
2022/07/30 13:31:37;;;;;;;;;;;27.00;86.20;;;;;;5075696;28;19909;-68
2022/07/30 13:34:03;;;;;;;;;;;27.40;86.80;;;;;;5075655;28;19957;-69
2022/07/30 13:36:29;;;;;;;;;;;27.50;85.00;;;;;;5075845;28;19958;-69
2022/07/30 13:38:54;;;;;;;;;;;27.90;84.40;;;;;;5075850;28;19913;-69
2022/07/30 13:41:20;;;;;;;;;;;28.10;81.40;;;;;;5075572;28;20337;-69
2022/07/30 13:43:45;;;;;;;;;;;28.00;79.90;;;;;;5075764;28;19909;-69
2022/07/30 13:46:11;;;;;;;;;;;28.00;78.10;;;;;;5075322;28;19920;-68
2022/07/30 13:48:36;;;;;;;;;;;27.90;78.80;;;;;;5075351;28;20409;-69
2022/07/30 13:51:02;;;;;;;;;;;27.60;79.60;;;;;;5075361;28;19908;-68
2022/07/30 13:53:28;;;;;;;;;;;27.30;81.40;;;;;;5075566;28;19916;-69
2022/07/30 13:55:54;;;;;;;;;;;27.30;79.70;;;;;;5075274;28;19913;-68
2022/07/30 13:58:20;;;;;;;;;;;27.20;78.80;;;;;;5075471;28;20321;-68
2022/07/30 14:00:46;;;;;;;;;;;27.20;78.20;;;;;;5075100;28;19908;-68
2022/07/30 14:03:12;;;;;;;;;;;26.90;78.40;;;;;;5075392;28;19908;-68
2022/07/30 14:05:38;;;;;;;;;;;27.00;76.40;;;;;;5057241;28;20272;-68
2022/07/30 14:08:06;;;;;;;;;;;27.30;76.40;;;;;;5075035;28;19916;-68
2022/07/30 14:10:33;;;;;;;;;;;27.20;74.40;;;;;;5073964;28;19908;-68
2022/07/30 14:12:59;;;;;;;;;;;27.40;76.70;;;;;;5075169;28;19908;-68
2022/07/30 14:15:26;;;;;;;;;;;27.00;75.50;;;;;;5074923;28;19912;-68
2022/07/30 14:17:52;;;;;;;;;;;26.90;75.70;;;;;;5075104;28;19978;-68
2022/07/30 14:20:18;;;;;;;;;;;27.20;77.90;;;;;;5075093;28;20347;-68
2022/07/30 14:22:43;;;;;;;;;;;27.40;76.70;;;;;;5056851;28;19912;-68
2022/07/30 14:25:09;;;;;;;;;;;27.60;74.50;;;;;;5074694;28;20337;-69